createdAt,value
2019-05-03T00:01:42.004Z,81.18
2019-05-03T00:04:12.060Z,81.47
2019-05-03T00:06:40.328Z,81.46
2019-05-03T00:09:11.896Z,81.13
2019-05-03T00:11:42.113Z,80.97
2019-05-03T00:14:12.330Z,81.40
2019-05-03T00:16:42.074Z,80.96
2019-05-03T00:19:10.337Z,80.76
2019-05-03T00:21:38.714Z,80.91
2019-05-03T00:24:06.976Z,80.71
2019-05-03T00:26:35.283Z,80.64
2019-05-03T00:29:03.536Z,80.67
2019-05-03T00:31:31.967Z,80.63
2019-05-03T00:34:02.234Z,80.49
2019-05-03T00:36:32.849Z,80.48
2019-05-03T00:39:03.120Z,80.66
2019-05-03T00:41:32.040Z,80.70
2019-05-03T00:44:02.107Z,79.83
2019-05-03T00:46:30.346Z,79.78
2019-05-03T00:48:58.635Z,79.75
2019-05-03T00:51:26.882Z,80.08
2019-05-03T00:53:55.172Z,80.24
2019-05-03T00:56:23.431Z,80.15
2019-05-03T00:58:53.381Z,80.26
2019-05-03T01:01:22.545Z,80.22
2019-05-03T01:03:52.721Z,80.49
2019-05-03T01:06:22.380Z,79.99
2019-05-03T01:08:52.278Z,79.82
2019-05-03T01:11:22.251Z,79.63
2019-05-03T01:13:52.159Z,79.80
2019-05-03T01:16:22.740Z,79.71
2019-05-03T01:18:52.318Z,79.81
2019-05-03T01:21:22.558Z,79.31
2019-05-03T01:23:52.578Z,79.07
2019-05-03T01:26:22.676Z,78.76
2019-05-03T01:28:52.141Z,78.54
2019-05-03T01:31:22.657Z,78.38
2019-05-03T01:33:51.619Z,78.39
2019-05-03T01:36:22.702Z,79.30
2019-05-03T01:38:52.809Z,79.08
2019-05-03T01:41:21.686Z,79.36
2019-05-03T01:43:50.010Z,79.87
2019-05-03T01:46:18.386Z,80.03
2019-05-03T01:48:57.018Z,79.93
2019-05-03T01:51:26.956Z,79.95
2019-05-03T01:53:55.212Z,80.21
2019-05-03T01:56:23.542Z,80.20
2019-05-03T01:58:52.391Z,80.34
2019-05-03T02:01:22.618Z,80.19
2019-05-03T02:04:12.265Z,80.31
2019-05-03T02:06:42.451Z,79.98
2019-05-03T02:09:12.199Z,79.88
2019-05-03T02:11:42.143Z,79.99
2019-05-03T02:14:12.385Z,79.84
2019-05-03T02:16:41.994Z,79.29
2019-05-03T02:19:12.495Z,79.61
2019-05-03T02:21:41.650Z,79.35
2019-05-03T02:24:11.861Z,79.51
2019-05-03T02:26:42.335Z,79.51
2019-05-03T02:29:12.440Z,79.21
2019-05-03T02:31:43.333Z,79.73
2019-05-03T02:34:12.535Z,79.72
2019-05-03T02:36:42.891Z,79.54
2019-05-03T02:39:13.599Z,79.53
2019-05-03T02:41:42.060Z,79.22
2019-05-03T02:44:10.977Z,79.17
2019-05-03T02:46:40.911Z,78.65
2019-05-03T02:49:19.601Z,78.92
2019-05-03T02:51:47.902Z,79.04
2019-05-03T02:54:16.174Z,79.20
2019-05-03T02:56:46.077Z,78.71
2019-05-03T02:59:15.839Z,78.74
2019-05-03T03:01:46.499Z,78.74
2019-05-03T03:04:15.686Z,78.60
2019-05-03T03:06:45.450Z,78.54
2019-05-03T03:09:16.422Z,78.95
2019-05-03T03:11:45.772Z,78.45
2019-05-03T03:14:16.646Z,78.41
2019-05-03T03:16:45.625Z,78.43
2019-05-03T03:19:15.969Z,78.34
2019-05-03T03:21:46.796Z,78.16
2019-05-03T03:24:18.352Z,78.33
2019-05-03T03:26:47.401Z,78.57
2019-05-03T03:29:17.535Z,78.32
2019-05-03T03:31:51.840Z,78.26
2019-05-03T03:34:27.549Z,78.17
2019-05-03T03:37:00.770Z,78.20
2019-05-03T03:39:26.048Z,77.85
2019-05-03T03:41:55.787Z,78.02
2019-05-03T03:44:25.724Z,77.79
2019-05-03T03:46:56.165Z,77.96
2019-05-03T03:49:26.250Z,77.98
2019-05-03T03:51:56.324Z,77.97
2019-05-03T03:54:26.055Z,78.08
2019-05-03T03:57:03.291Z,78.05
2019-05-03T03:59:26.558Z,78.17
2019-05-03T04:01:55.305Z,77.68
2019-05-03T04:04:26.107Z,77.83
2019-05-03T04:06:58.478Z,77.80
2019-05-03T04:09:25.562Z,77.49
2019-05-03T04:11:56.760Z,77.60
2019-05-03T04:14:26.011Z,77.88
2019-05-03T04:17:05.872Z,77.79
2019-05-03T04:19:38.618Z,77.96
2019-05-03T04:22:07.055Z,77.77
2019-05-03T04:24:35.565Z,77.77
2019-05-03T04:27:18.563Z,77.49
2019-05-03T04:29:37.879Z,77.15
2019-05-03T04:32:06.983Z,77.09
2019-05-03T04:34:35.835Z,77.11
2019-05-03T04:37:05.577Z,77.24
2019-05-03T04:39:35.948Z,76.96
2019-05-03T04:42:06.738Z,76.77
2019-05-03T04:44:35.801Z,76.82
2019-05-03T04:47:06.838Z,77.25
2019-05-03T04:49:36.196Z,76.91
2019-05-03T04:52:05.783Z,76.79
2019-05-03T04:54:39.160Z,76.82
2019-05-03T04:57:07.526Z,76.35
2019-05-03T04:59:35.991Z,75.85
2019-05-03T05:02:06.109Z,76.17
2019-05-03T05:04:35.710Z,75.33
2019-05-03T05:07:06.212Z,74.74
2019-05-03T05:09:34.901Z,75.37
2019-05-03T05:12:05.668Z,74.60
2019-05-03T05:14:35.206Z,74.48
2019-05-03T05:17:06.183Z,74.35
2019-05-03T05:19:35.804Z,74.82
2019-05-03T05:22:06.016Z,73.62
2019-05-03T05:24:34.704Z,72.87
2019-05-03T05:27:07.504Z,73.58
2019-05-03T05:29:37.422Z,73.05
2019-05-03T05:32:05.652Z,73.12
2019-05-03T05:34:34.907Z,73.10
2019-05-03T05:37:05.285Z,72.98
2019-05-03T05:39:35.451Z,72.49
2019-05-03T05:42:04.548Z,72.53
2019-05-03T05:44:35.101Z,72.75
2019-05-03T05:47:07.455Z,73.19
2019-05-03T05:49:46.438Z,72.54
2019-05-03T05:52:15.461Z,72.45
2019-05-03T05:54:46.001Z,71.22
2019-05-03T05:57:25.651Z,71.98
2019-05-03T06:00:12.160Z,71.88
2019-05-03T06:02:40.378Z,71.37
2019-05-03T06:05:08.648Z,69.62
2019-05-03T06:07:38.541Z,68.78
2019-05-03T06:10:16.552Z,68.95
2019-05-03T06:12:48.967Z,69.50
2019-05-03T06:15:34.702Z,69.83
2019-05-03T06:18:19.693Z,69.76
2019-05-03T06:20:49.589Z,68.97
2019-05-03T06:23:19.473Z,69.64
2019-05-03T06:25:47.768Z,70.02
2019-05-03T06:28:20.802Z,69.36
2019-05-03T06:30:55.044Z,68.94
2019-05-03T06:33:24.522Z,68.99
2019-05-03T06:35:54.602Z,69.33
2019-05-03T06:38:24.385Z,68.87
2019-05-03T06:40:54.437Z,68.56
2019-05-03T06:43:24.511Z,68.63
2019-05-03T06:45:54.666Z,69.39
2019-05-03T06:48:28.006Z,69.49
2019-05-03T06:50:52.847Z,68.64
2019-05-03T06:53:21.071Z,68.60
2019-05-03T06:55:49.297Z,70.87
2019-05-03T06:58:30.547Z,69.66
2019-05-03T07:01:01.080Z,68.44
2019-05-03T07:03:40.144Z,68.18
2019-05-03T07:06:33.266Z,68.64
2019-05-03T07:08:54.943Z,67.36
2019-05-03T07:11:24.751Z,64.43
2019-05-03T07:13:55.025Z,66.42
2019-05-03T07:16:25.126Z,66.30
2019-05-03T07:18:56.496Z,65.98
2019-05-03T07:21:24.746Z,65.31
2019-05-03T07:23:55.019Z,65.67
2019-05-03T07:26:25.229Z,64.69
2019-05-03T07:28:54.530Z,65.82
2019-05-03T07:31:25.347Z,66.72
2019-05-03T07:33:55.060Z,65.02
2019-05-03T07:36:25.954Z,65.58
2019-05-03T07:38:55.401Z,66.30
2019-05-03T07:41:26.894Z,67.72
2019-05-03T07:43:54.891Z,65.18
2019-05-03T07:46:24.775Z,64.26
2019-05-03T07:48:54.836Z,64.25
2019-05-03T07:51:24.971Z,64.31
2019-05-03T07:53:55.377Z,65.22
2019-05-03T07:56:25.478Z,63.48
2019-05-03T07:59:00.581Z,63.90
2019-05-03T08:01:29.171Z,63.02
2019-05-03T08:03:57.745Z,63.17
2019-05-03T08:06:25.977Z,62.26
2019-05-03T08:08:54.617Z,61.95
2019-05-03T08:11:24.842Z,62.87
2019-05-03T08:13:55.001Z,63.73
2019-05-03T08:16:25.108Z,61.48
2019-05-03T08:18:55.609Z,64.01
2019-05-03T08:21:25.287Z,60.79
2019-05-03T08:23:55.477Z,60.58
2019-05-03T08:26:25.076Z,60.78
2019-05-03T08:28:54.522Z,61.89
2019-05-03T08:31:36.500Z,59.51
2019-05-03T08:34:06.384Z,60.24
2019-05-03T08:36:36.306Z,59.99
2019-05-03T08:39:05.763Z,59.89
2019-05-03T08:41:35.676Z,58.42
2019-05-03T08:44:05.194Z,59.24
2019-05-03T08:46:35.462Z,60.28
2019-05-03T08:49:05.235Z,60.04
2019-05-03T08:51:35.238Z,58.22
2019-05-03T08:54:04.743Z,58.50
2019-05-03T08:56:34.888Z,58.48
2019-05-03T08:59:04.672Z,57.48
2019-05-03T09:01:35.720Z,58.95
2019-05-03T09:04:04.955Z,58.44
2019-05-03T09:06:35.358Z,58.79
2019-05-03T09:09:04.902Z,59.14
2019-05-03T09:11:34.806Z,60.48
2019-05-03T09:14:04.792Z,58.80
2019-05-03T09:16:33.017Z,57.70
2019-05-03T09:19:01.525Z,53.23
2019-05-03T09:21:29.753Z,54.98
2019-05-03T09:23:57.991Z,54.09
2019-05-03T09:26:29.078Z,54.90
2019-05-03T09:28:56.267Z,55.73
2019-05-03T09:31:24.888Z,54.65
2019-05-03T09:33:54.786Z,55.97
2019-05-03T09:36:25.104Z,51.49
2019-05-03T09:38:54.990Z,51.83
2019-05-03T09:41:25.336Z,53.06
2019-05-03T09:43:55.250Z,52.57
2019-05-03T09:46:24.290Z,53.33
2019-05-03T09:48:58.501Z,52.45
2019-05-03T09:51:23.083Z,53.87
2019-05-03T09:53:55.945Z,53.35
2019-05-03T09:56:53.436Z,52.01
2019-05-03T09:59:11.938Z,50.96
2019-05-03T10:01:40.230Z,50.21
2019-05-03T10:04:08.462Z,48.98
2019-05-03T10:06:36.705Z,50.29
2019-05-03T10:09:05.977Z,52.41
2019-05-03T10:11:35.110Z,52.99
2019-05-03T10:14:04.699Z,53.87
2019-05-03T10:16:35.137Z,52.57
2019-05-03T10:19:03.507Z,52.25
2019-05-03T10:21:35.425Z,53.12
2019-05-03T10:24:05.570Z,52.25
2019-05-03T10:26:35.474Z,53.31
2019-05-03T10:29:05.277Z,52.72
2019-05-03T10:31:35.488Z,53.79
2019-05-03T10:34:05.738Z,53.76
2019-05-03T10:36:35.670Z,54.88
2019-05-03T10:39:05.206Z,54.34
2019-05-03T10:41:34.803Z,55.34
2019-05-03T10:44:03.145Z,54.72
2019-05-03T10:46:31.537Z,53.45
2019-05-03T10:48:59.771Z,53.91
2019-05-03T10:51:29.697Z,53.57
2019-05-03T10:53:59.574Z,53.84
2019-05-03T10:56:31.905Z,54.32
2019-05-03T10:59:01.787Z,54.16
2019-05-03T11:01:45.260Z,52.22
2019-05-03T11:04:14.778Z,52.47
2019-05-03T11:06:45.470Z,53.99
2019-05-03T11:09:15.239Z,53.98
2019-05-03T11:11:45.232Z,52.64
2019-05-03T11:14:14.967Z,53.47
2019-05-03T11:16:43.040Z,53.01
2019-05-03T11:19:11.316Z,52.43
2019-05-03T11:21:39.552Z,52.49
2019-05-03T11:24:07.828Z,52.60
2019-05-03T11:26:36.656Z,53.06
2019-05-03T11:29:05.319Z,54.59
2019-05-03T11:31:50.337Z,51.50
2019-05-03T11:34:36.116Z,53.10
2019-05-03T11:37:20.824Z,51.54
2019-05-03T11:39:49.938Z,50.41
2019-05-03T11:42:18.621Z,46.85
2019-05-03T11:44:48.224Z,49.23
2019-05-03T11:47:16.466Z,50.30
2019-05-03T11:49:45.437Z,47.87
2019-05-03T11:52:15.916Z,46.18
2019-05-03T11:54:45.267Z,45.64
2019-05-03T11:57:27.425Z,48.07
2019-05-03T11:59:55.776Z,46.98
2019-05-03T12:02:28.959Z,46.56
2019-05-03T12:04:58.940Z,45.83
2019-05-03T12:07:39.340Z,46.37
2019-05-03T12:10:13.755Z,45.98
2019-05-03T12:12:37.623Z,48.68
2019-05-03T12:15:07.505Z,48.54
2019-05-03T12:17:50.942Z,47.66
2019-05-03T12:20:11.390Z,47.97
2019-05-03T12:22:40.627Z,48.93
2019-05-03T12:25:10.644Z,49.32
2019-05-03T12:27:39.576Z,50.20
2019-05-03T12:30:07.799Z,49.72
2019-05-03T12:32:36.083Z,47.48
2019-05-03T12:35:06.162Z,47.06
2019-05-03T12:37:35.322Z,49.42
2019-05-03T12:40:07.417Z,50.47
2019-05-03T12:42:35.710Z,51.35
2019-05-03T12:45:04.697Z,50.83
2019-05-03T12:47:34.692Z,50.52
2019-05-03T12:50:05.314Z,50.54
2019-05-03T12:52:36.654Z,51.52
2019-05-03T12:55:06.015Z,52.30
2019-05-03T12:57:34.514Z,52.37
2019-05-03T13:00:07.753Z,52.84
2019-05-03T13:02:37.667Z,52.08
2019-05-03T13:05:06.082Z,52.46
2019-05-03T13:07:38.904Z,49.64
2019-05-03T13:10:07.367Z,49.81
2019-05-03T13:12:49.140Z,52.26
2019-05-03T13:15:09.033Z,49.99
2019-05-03T13:17:38.089Z,50.10
2019-05-03T13:20:09.587Z,50.10
2019-05-03T13:22:37.805Z,50.24
2019-05-03T13:25:07.798Z,50.33
2019-05-03T13:27:36.047Z,48.68
2019-05-03T13:30:06.766Z,48.53
2019-05-03T13:32:35.059Z,48.29
2019-05-03T13:35:05.768Z,49.70
2019-05-03T13:37:35.758Z,49.13
2019-05-03T13:40:07.413Z,48.33
2019-05-03T13:42:35.643Z,50.77
2019-05-03T13:45:09.863Z,51.91
2019-05-03T13:47:38.105Z,51.27
2019-05-03T13:50:07.259Z,48.82
2019-05-03T13:52:35.481Z,48.98
2019-05-03T13:55:05.391Z,48.50
2019-05-03T13:57:35.364Z,47.45
2019-05-03T14:00:06.320Z,48.76
2019-05-03T14:03:04.495Z,47.41
2019-05-03T14:05:10.489Z,49.09
2019-05-03T14:07:38.721Z,45.77
2019-05-03T14:10:07.034Z,45.15
2019-05-03T14:12:35.323Z,45.83
2019-05-03T14:15:05.675Z,46.99
2019-05-03T14:17:34.168Z,47.87
2019-05-03T14:20:09.574Z,45.58
2019-05-03T14:22:39.489Z,47.94
2019-05-03T14:25:07.723Z,46.72
2019-05-03T14:27:36.026Z,46.60
2019-05-03T14:30:07.534Z,45.74
2019-05-03T14:32:36.070Z,45.82
2019-05-03T14:35:06.730Z,45.50
2019-05-03T14:37:37.816Z,46.17
2019-05-03T14:40:07.059Z,46.77
2019-05-03T14:42:35.356Z,46.21
2019-05-03T14:45:05.043Z,47.72
2019-05-03T14:47:33.284Z,47.57
2019-05-03T14:50:02.575Z,47.40
2019-05-03T14:52:30.810Z,46.42
2019-05-03T14:55:00.726Z,47.08
2019-05-03T14:57:30.608Z,46.03
2019-05-03T15:00:17.465Z,45.00
2019-05-03T15:02:50.961Z,44.87
2019-05-03T15:05:17.565Z,44.98
2019-05-03T15:07:46.035Z,43.15
2019-05-03T15:10:15.017Z,44.37
2019-05-03T15:12:45.230Z,45.93
2019-05-03T15:15:14.642Z,45.03
2019-05-03T15:17:43.191Z,45.72
2019-05-03T15:20:11.455Z,45.91
2019-05-03T15:22:39.683Z,45.04
2019-05-03T15:25:07.924Z,44.65
2019-05-03T15:27:36.201Z,43.10
2019-05-03T15:30:08.323Z,44.04
2019-05-03T15:32:36.000Z,44.55
2019-05-03T15:35:08.470Z,44.92
2019-05-03T15:37:36.751Z,45.47
2019-05-03T15:40:08.769Z,44.66
2019-05-03T15:42:38.685Z,44.12
2019-05-03T15:45:11.105Z,44.36
2019-05-03T15:47:41.037Z,45.46
2019-05-03T15:50:09.337Z,44.42
2019-05-03T15:52:37.615Z,45.89
2019-05-03T15:55:08.773Z,45.16
2019-05-03T15:57:37.072Z,45.47
2019-05-03T16:00:08.118Z,45.41
2019-05-03T16:02:36.416Z,45.50
2019-05-03T16:05:05.716Z,45.68
2019-05-03T16:07:35.549Z,46.30
2019-05-03T16:10:05.054Z,45.67
2019-05-03T16:12:34.457Z,45.83
2019-05-03T16:15:04.697Z,44.76
2019-05-03T16:17:33.158Z,44.48
2019-05-03T16:20:01.404Z,44.75
2019-05-03T16:22:29.688Z,44.07
2019-05-03T16:24:57.919Z,45.00
2019-05-03T16:27:30.617Z,45.00
2019-05-03T16:29:59.324Z,46.21
2019-05-03T16:32:27.588Z,47.13
2019-05-03T16:34:55.815Z,45.06
2019-05-03T16:37:25.500Z,45.53
2019-05-03T16:39:55.052Z,45.74
2019-05-03T16:42:24.589Z,45.40
2019-05-03T16:44:54.871Z,45.24
2019-05-03T16:47:24.834Z,46.48
2019-05-03T16:49:53.080Z,46.72
2019-05-03T16:52:21.313Z,47.01
2019-05-03T16:54:49.594Z,46.91
2019-05-03T16:57:17.828Z,47.03
2019-05-03T16:59:46.097Z,46.59
2019-05-03T17:02:14.707Z,46.57
2019-05-03T17:04:51.588Z,46.34
2019-05-03T17:07:30.349Z,46.72
2019-05-03T17:10:00.279Z,47.94
2019-05-03T17:12:36.176Z,46.67
2019-05-03T17:15:07.668Z,46.53
2019-05-03T17:17:35.893Z,47.78
2019-05-03T17:20:07.381Z,47.70
2019-05-03T17:22:35.673Z,47.70
2019-05-03T17:25:06.629Z,47.99
2019-05-03T17:27:35.102Z,48.51
2019-05-03T17:30:05.277Z,48.61
2019-05-03T17:32:35.104Z,48.83
2019-05-03T17:35:05.411Z,49.04
2019-05-03T17:37:34.668Z,48.90
2019-05-03T17:40:07.718Z,49.50
2019-05-03T17:42:55.646Z,48.89
2019-05-03T17:45:25.523Z,49.52
2019-05-03T17:47:54.849Z,49.40
2019-05-03T17:50:23.318Z,49.43
2019-05-03T17:52:54.563Z,50.15
2019-05-03T17:55:35.204Z,50.10
2019-05-03T17:58:11.138Z,50.62
2019-05-03T18:00:57.127Z,50.72
2019-05-03T18:03:27.062Z,50.50
2019-05-03T18:06:05.620Z,50.48
2019-05-03T18:08:38.237Z,50.50
2019-05-03T18:11:10.889Z,51.08
2019-05-03T18:13:39.121Z,51.50
2019-05-03T18:16:07.404Z,51.99
2019-05-03T18:18:35.633Z,51.17
2019-05-03T18:21:04.764Z,50.84
2019-05-03T18:23:35.024Z,50.92
2019-05-03T18:26:05.151Z,51.30
2019-05-03T18:28:35.374Z,52.09
2019-05-03T18:31:05.177Z,51.87
2019-05-03T18:33:33.441Z,51.33
2019-05-03T18:36:01.721Z,51.30
2019-05-03T18:38:31.646Z,51.45
2019-05-03T18:40:59.878Z,50.28
2019-05-03T18:43:29.807Z,50.41
2019-05-03T18:45:59.706Z,50.84
2019-05-03T18:48:27.990Z,51.20
2019-05-03T18:50:56.226Z,52.26
2019-05-03T18:53:25.200Z,51.79
2019-05-03T18:55:55.185Z,52.28
2019-05-03T18:58:24.424Z,51.30
2019-05-03T19:00:54.759Z,51.70
2019-05-03T19:03:25.002Z,52.18
2019-05-03T19:05:54.780Z,53.00
2019-05-03T19:08:42.395Z,53.35
2019-05-03T19:11:12.340Z,55.03
2019-05-03T19:13:44.894Z,56.30
2019-05-03T19:16:15.006Z,56.62
2019-05-03T19:18:45.323Z,56.88
2019-05-03T19:21:15.005Z,56.37
2019-05-03T19:23:44.813Z,56.27
2019-05-03T19:26:14.434Z,55.97
2019-05-03T19:28:44.463Z,56.03
2019-05-03T19:31:12.856Z,56.13
2019-05-03T19:33:41.093Z,55.83
2019-05-03T19:36:09.399Z,55.71
2019-05-03T19:38:37.637Z,55.75
2019-05-03T19:41:05.951Z,55.67
2019-05-03T19:43:35.563Z,55.59
2019-05-03T19:46:04.570Z,55.39
2019-05-03T19:48:34.864Z,54.61
2019-05-03T19:51:05.797Z,54.53
2019-05-03T19:53:35.945Z,54.37
2019-05-03T19:56:05.561Z,54.82
2019-05-03T19:58:35.345Z,54.51
2019-05-03T20:01:24.922Z,54.81
2019-05-03T20:04:10.560Z,55.04
2019-05-03T20:06:52.398Z,55.15
2019-05-03T20:09:24.752Z,55.23
2019-05-03T20:11:55.113Z,55.39
2019-05-03T20:14:22.979Z,55.47
2019-05-03T20:16:51.219Z,55.48
2019-05-03T20:19:21.487Z,55.04
2019-05-03T20:21:50.054Z,55.48
2019-05-03T20:24:18.305Z,55.61
2019-05-03T20:26:46.538Z,56.19
2019-05-03T20:29:14.882Z,56.66
2019-05-03T20:31:44.702Z,56.52
2019-05-03T20:34:13.221Z,56.83
2019-05-03T20:36:41.476Z,56.61
2019-05-03T20:39:09.759Z,56.69
2019-05-03T20:41:38.029Z,56.64
2019-05-03T20:44:24.741Z,56.63
2019-05-03T20:47:09.962Z,56.59
2019-05-03T20:49:38.227Z,56.65
2019-05-03T20:52:06.450Z,57.34
2019-05-03T20:54:35.075Z,57.16
2019-05-03T20:57:05.300Z,57.42
2019-05-03T20:59:42.894Z,57.50
2019-05-03T21:02:03.564Z,57.71
2019-05-03T21:04:31.847Z,57.67
2019-05-03T21:07:00.107Z,57.48
2019-05-03T21:09:28.375Z,57.81
2019-05-03T21:11:56.611Z,58.23
2019-05-03T21:14:24.873Z,58.31
2019-05-03T21:16:54.741Z,58.10
2019-05-03T21:19:36.853Z,58.13
2019-05-03T21:22:09.961Z,58.52
2019-05-03T21:24:39.843Z,58.87
2019-05-03T21:27:08.123Z,58.71
2019-05-03T21:29:38.015Z,58.78
2019-05-03T21:32:06.283Z,58.94
2019-05-03T21:34:34.713Z,58.93
2019-05-03T21:37:02.975Z,58.84
2019-05-03T21:39:31.211Z,58.87
2019-05-03T21:41:59.499Z,58.72
2019-05-03T21:44:31.412Z,58.65
2019-05-03T21:47:01.335Z,58.58
2019-05-03T21:49:46.241Z,58.89
2019-05-03T21:52:14.748Z,59.01
2019-05-03T21:54:44.940Z,58.85
2019-05-03T21:57:14.246Z,59.14
2019-05-03T21:59:44.682Z,59.00
2019-05-03T22:02:15.287Z,59.27
2019-05-03T22:04:44.455Z,59.47
2019-05-03T22:07:12.838Z,59.39
2019-05-03T22:09:41.126Z,59.35
2019-05-03T22:12:09.354Z,59.66
2019-05-03T22:14:39.268Z,59.77
2019-05-03T22:17:25.356Z,59.51
2019-05-03T22:19:55.332Z,59.58
2019-05-03T22:22:30.686Z,59.61
2019-05-03T22:25:00.621Z,59.99
2019-05-03T22:27:30.502Z,59.71
2019-05-03T22:29:58.781Z,60.01
2019-05-03T22:32:27.240Z,59.90
2019-05-03T22:34:55.514Z,59.75
2019-05-03T22:37:25.191Z,60.27
2019-05-03T22:39:55.034Z,60.91
2019-05-03T22:42:25.179Z,61.09
2019-05-03T22:44:55.220Z,61.57
2019-05-03T22:47:25.178Z,61.91
2019-05-03T22:49:54.772Z,62.67
2019-05-03T22:52:23.320Z,63.02
2019-05-03T22:54:51.557Z,63.79
2019-05-03T22:57:19.827Z,64.45
2019-05-03T22:59:48.050Z,64.71
2019-05-03T23:02:17.227Z,64.99
2019-05-03T23:04:45.563Z,65.23
2019-05-03T23:07:14.866Z,65.77
2019-05-03T23:09:44.667Z,66.19
2019-05-03T23:12:13.142Z,66.52
2019-05-03T23:14:41.362Z,66.28
2019-05-03T23:17:09.637Z,66.62
2019-05-03T23:19:39.515Z,66.27
2019-05-03T23:22:09.403Z,66.55
2019-05-03T23:24:37.682Z,66.49
2019-05-03T23:27:05.914Z,66.85
2019-05-03T23:29:34.930Z,67.00
2019-05-03T23:32:04.659Z,66.93
2019-05-03T23:34:35.158Z,67.21
2019-05-03T23:37:05.238Z,67.52
2019-05-03T23:39:33.100Z,67.99
2019-05-03T23:42:01.340Z,68.42
2019-05-03T23:44:29.616Z,68.68
2019-05-03T23:47:15.632Z,68.98
2019-05-03T23:49:44.627Z,69.37
2019-05-03T23:52:26.810Z,70.37
2019-05-03T23:54:56.786Z,70.48
2019-05-03T23:57:25.197Z,70.50
2019-05-03T23:59:55.002Z,71.73
